Time;durP1;ratioP1;P1;durP2;ratioP2;P2;SDS_P1;SDS_P2;PMS_P1;PMS_P2;Temp;Humidity;BMP_temperature;BMP_pressure;BME280_temperature;BME280_humidity;BME280_pressure;Samples;Min_cycle;Max_cycle;Signal;HPM_P1;HPM_P2
2022/06/15 00:00:01;;;;;;;8.18;5.32;;;;;;;17.06;74.20;99663.91;4909666;29;20019;-95
2022/06/15 00:02:27;;;;;;;7.18;5.10;;;;;;;17.13;74.08;99665.06;4910829;29;20073;-94
2022/06/15 00:04:52;;;;;;;8.80;5.35;;;;;;;17.18;73.91;99653.25;4909946;29;20019;-94
2022/06/15 00:07:18;;;;;;;15.60;5.30;;;;;;;17.06;73.68;99672.84;4910338;29;20482;-94
2022/06/15 00:09:43;;;;;;;8.43;4.32;;;;;;;16.95;73.65;99655.13;4910234;29;20038;-94
2022/06/15 00:12:09;;;;;;;9.57;4.72;;;;;;;16.89;73.21;99656.31;4925639;29;20098;-94
2022/06/15 00:14:34;;;;;;;8.95;4.20;;;;;;;16.74;73.64;99649.25;4909863;29;20023;-94
2022/06/15 00:17:01;;;;;;;6.35;4.40;;;;;;;16.75;74.26;99675.38;4910890;29;20051;-94
2022/06/15 00:19:27;;;;;;;17.30;4.90;;;;;;;16.66;73.95;99663.56;4909351;29;20059;-94
2022/06/15 00:21:52;;;;;;;6.95;4.13;;;;;;;16.59;74.13;99649.56;4910316;29;20405;-94
2022/06/15 00:24:18;;;;;;;8.02;4.60;;;;;;;16.59;74.25;99649.56;4909750;29;20094;-94
2022/06/15 00:26:43;;;;;;;7.93;4.55;;;;;;;16.55;74.75;99647.44;4909822;28;20042;-94
2022/06/15 00:29:09;;;;;;;10.63;5.00;;;;;;;16.54;74.64;99654.00;4908634;29;20097;-94
2022/06/15 00:31:35;;;;;;;7.00;4.50;;;;;;;16.34;74.81;99644.31;4925353;29;20031;-94
2022/06/15 00:34:00;;;;;;;8.02;4.80;;;;;;;16.37;75.25;99645.59;4909829;29;20078;-95
2022/06/15 00:36:26;;;;;;;7.18;4.55;;;;;;;16.49;75.39;99669.59;4906350;29;20055;-93
2022/06/15 00:38:56;;;;;;;6.95;4.35;;;;;;;16.43;74.66;99649.84;4906573;29;20517;-93
2022/06/15 00:41:28;;;;;;;8.00;4.50;;;;;;;16.29;75.26;99640.88;4905904;29;20173;-95
2022/06/15 00:43:56;;;;;;;7.95;4.50;;;;;;;16.33;75.40;99653.56;4907279;29;20023;-93
2022/06/15 00:46:39;;;;;;;19.92;4.70;;;;;;;16.39;75.07;99667.06;4938081;29;20122;-93
2022/06/15 00:49:18;;;;;;;9.63;4.13;;;;;;;16.47;75.32;99683.47;4938158;29;20031;-94
2022/06/15 00:51:44;;;;;;;10.50;4.40;;;;;;;16.21;74.29;99647.00;4922109;29;20024;-93
2022/06/15 00:54:09;;;;;;;9.77;4.22;;;;;;;16.18;74.52;99651.13;4906142;29;20024;-94
2022/06/15 00:56:35;;;;;;;9.27;4.22;;;;;;;16.17;74.73;99654.94;4905182;29;20051;-93
2022/06/15 00:59:24;;;;;;;13.88;4.40;;;;;;;16.23;74.95;99661.09;4906302;29;20027;-94
2022/06/15 01:01:49;;;;;;;9.40;4.43;;;;;;;16.19;74.08;99651.94;4906317;29;20023;-93
2022/06/15 01:04:15;;;;;;;6.05;4.32;;;;;;;16.26;74.28;99653.16;4905958;29;20024;-93
2022/06/15 01:06:51;;;;;;;12.80;3.85;;;;;;;16.29;74.78;99676.19;4906055;29;20031;-91
2022/06/15 01:09:24;;;;;;;6.85;4.03;;;;;;;16.28;74.06;99661.81;4921428;29;20032;-95
2022/06/15 01:12:14;;;;;;;10.43;4.18;;;;;;;16.42;74.03;99677.34;4906091;29;20478;-93
2022/06/15 01:15:05;;;;;;;5.72;4.05;;;;;;;16.32;74.46;99670.19;4937343;29;20110;-94
2022/06/15 01:17:52;;;;;;;12.40;4.13;;;;;;;16.24;74.53;99671.66;4936186;29;20114;-94
2022/06/15 01:20:37;;;;;;;14.35;3.80;;;;;;;16.14;74.38;99664.50;4936012;29;20023;-93
2022/06/15 01:23:35;;;;;;;11.68;3.80;;;;;;;16.11;73.76;99675.16;4905268;29;20569;-94
2022/06/15 01:26:26;;;;;;;9.63;3.40;;;;;;;16.12;73.75;99674.88;4923074;29;20059;-94
2022/06/15 01:28:56;;;;;;;9.45;3.67;;;;;;;16.07;73.63;99674.94;4936132;29;20035;-95
2022/06/15 01:31:46;;;;;;;9.73;3.17;;;;;;;15.94;74.21;99670.28;4904673;29;20027;-95
2022/06/15 01:34:33;;;;;;;6.45;3.65;;;;;;;15.86;74.02;99673.69;4919969;29;20086;-92
2022/06/15 01:37:13;;;;;;;10.77;3.47;;;;;;;15.75;74.00;99656.75;4952099;29;20123;-93
2022/06/15 01:40:05;;;;;;;8.93;3.72;;;;;;;15.84;73.47;99665.03;4937370;29;20462;-91
2022/06/15 01:42:34;;;;;;;;;;;;;;;15.80;74.10;99670.22;4922908;29;20409;-94
2022/06/15 01:45:02;;;;;;;9.43;3.25;;;;;;;15.55;74.10;99650.47;4920167;29;19966;-96
2022/06/15 01:47:28;;;;;;;5.60;3.30;;;;;;;15.53;74.25;99652.69;4935945;29;20513;-95
2022/06/15 01:50:10;;;;;;;10.63;3.60;;;;;;;15.52;74.65;99659.22;4904555;29;20032;-95
2022/06/15 01:52:43;;;;;;;7.30;3.28;;;;;;;15.55;74.22;99672.19;4905434;29;20097;-95
2022/06/15 01:55:24;;;;;;;8.82;3.85;;;;;;;15.45;74.24;99649.84;4905209;29;20020;-94
2022/06/15 01:57:50;;;;;;;7.07;3.13;;;;;;;15.39;74.18;99654.53;4904515;29;20035;-94
2022/06/15 02:00:17;;;;;;;9.02;3.40;;;;;;;15.33;74.29;99650.25;4904157;29;20028;-94
2022/06/15 02:02:54;;;;;;;5.78;3.17;;;;;;;15.43;74.45;99679.97;4904904;29;20122;-94
2022/06/15 02:05:29;;;;;;;10.60;4.00;;;;;;;15.46;74.33;99675.84;4936780;29;20098;-94
2022/06/15 02:07:54;;;;;;;7.80;4.28;;;;;;;15.43;74.66;99681.88;4920581;29;20031;-94
2022/06/15 02:10:36;;;;;;;5.22;3.38;;;;;;;15.25;74.46;99681.59;4936799;29;20028;-94
2022/06/15 02:13:47;;;;;;;6.65;3.50;;;;;;;15.23;74.82;99688.38;4906099;29;20094;-94
2022/06/15 02:16:41;;;;;;;4.93;3.85;;;;;;;15.04;75.22;99677.50;4900970;29;20072;-95
2022/06/15 02:19:08;;;;;;;8.63;3.83;;;;;;;15.09;75.08;99688.31;4884563;29;20044;-95
2022/06/15 02:21:34;;;;;;;12.40;4.20;;;;;;;15.13;75.37;99692.06;4915322;29;20043;-94
2022/06/15 02:24:00;;;;;;;15.93;4.20;;;;;;;14.94;75.41;99671.13;4904661;29;20028;-94
2022/06/15 02:26:28;;;;;;;11.80;3.90;;;;;;;15.11;74.81;99678.78;4904106;29;20028;-95
2022/06/15 02:28:55;;;;;;;6.55;3.90;;;;;;;14.99;75.33;99674.88;4904865;29;20395;-94
2022/06/15 02:31:20;;;;;;;8.40;3.85;;;;;;;15.02;75.42;99679.69;4905595;29;20042;-94
2022/06/15 02:33:51;;;;;;;15.75;4.70;;;;;;;15.00;76.01;99673.75;4904993;29;20043;-94
2022/06/15 02:36:16;;;;;;;18.17;5.13;;;;;;;15.11;75.62;99686.13;4904913;29;20063;-94
2022/06/15 02:38:44;;;;;;;10.20;4.30;;;;;;;15.10;76.10;99689.91;4904055;29;20453;-95
2022/06/15 02:41:10;;;;;;;7.13;4.47;;;;;;;15.08;76.25;99682.06;4936237;29;20032;-94
2022/06/15 02:43:35;;;;;;;13.65;5.15;;;;;;;15.10;75.88;99695.34;4905582;29;20477;-94
2022/06/15 02:46:01;;;;;;;7.80;4.10;;;;;;;15.11;75.74;99692.34;4904590;29;20497;-95
2022/06/15 02:48:26;;;;;;;10.65;4.93;;;;;;;15.02;75.25;99693.25;4904430;29;20546;-94
2022/06/15 02:51:05;;;;;;;9.25;4.38;;;;;;;15.06;75.55;99692.38;4905346;29;20034;-95
2022/06/15 02:53:31;;;;;;;12.65;4.75;;;;;;;15.14;75.39;99705.31;4925235;29;20063;-94
2022/06/15 02:55:57;;;;;;;12.02;4.60;;;;;;;15.04;75.57;99697.28;4924389;29;20055;-94
2022/06/15 02:58:27;;;;;;;8.20;3.95;;;;;;;15.21;75.07;99717.72;4908274;29;20040;-94
2022/06/15 03:00:53;;;;;;;10.48;4.93;;;;;;;14.87;74.87;99672.56;4923734;29;20486;-95
2022/06/15 03:03:19;;;;;;;10.95;4.65;;;;;;;15.00;74.78;99695.47;4908424;29;20036;-94
2022/06/15 03:05:48;;;;;;;10.73;4.20;;;;;;;15.03;75.08;99705.75;4907812;29;20035;-94
2022/06/15 03:08:14;;;;;;;9.63;3.75;;;;;;;15.00;74.62;99703.59;4909289;29;20123;-95
2022/06/15 03:10:39;;;;;;;11.77;6.68;;;;;;;14.87;75.40;99697.75;4939704;29;20039;-94
2022/06/15 03:13:05;;;;;;;11.10;4.07;;;;;;;14.88;75.04;99693.97;4908163;29;20035;-95
2022/06/15 03:15:31;;;;;;;9.75;4.35;;;;;;;14.86;75.31;99707.00;4908904;29;20489;-94
2022/06/15 03:17:56;;;;;;;10.20;4.20;;;;;;;14.81;75.15;99693.50;4939565;29;20035;-93
2022/06/15 03:20:21;;;;;;;9.65;4.40;;;;;;;14.92;74.58;99700.44;4907538;29;20035;-93
2022/06/15 03:22:48;;;;;;;8.02;4.22;;;;;;;14.94;74.79;99692.81;4907802;29;20094;-93
2022/06/15 03:25:13;;;;;;;13.55;5.05;;;;;;;15.03;74.88;99706.53;4908007;29;20020;-94
2022/06/15 03:27:39;;;;;;;13.40;5.10;;;;;;;15.11;74.58;99714.03;4908535;29;20126;-93
2022/06/15 03:30:07;;;;;;;12.23;5.38;;;;;;;15.18;74.65;99700.13;4907495;29;20024;-91
2022/06/15 03:32:32;;;;;;;11.65;4.35;;;;;;;15.24;74.35;99709.00;4906654;29;20082;-91
2022/06/15 03:34:58;;;;;;;15.20;4.72;;;;;;;15.36;73.95;99706.66;4907101;29;20063;-91
2022/06/15 03:37:23;;;;;;;12.30;4.70;;;;;;;15.40;73.33;99699.56;4925759;29;20521;-91
2022/06/15 03:39:49;;;;;;;11.80;4.82;;;;;;;15.10;74.15;99693.41;4910412;29;20032;-90
2022/06/15 03:42:24;;;;;;;5.47;3.60;;;;;;;14.87;73.98;99692.34;4925509;29;20034;-91
2022/06/15 03:44:50;;;;;;;8.52;4.03;;;;;;;14.83;74.66;99713.00;4925777;29;20058;-91
2022/06/15 03:47:17;;;;;;;25.38;9.35;;;;;;;14.80;73.64;99710.06;4941917;29;20027;-90
2022/06/15 03:49:44;;;;;;;12.35;5.60;;;;;;;15.00;73.73;99717.94;4940964;29;20027;-91
2022/06/15 03:52:10;;;;;;;10.55;4.22;;;;;;;15.08;72.83;99703.75;4909762;29;20027;-90
2022/06/15 03:54:36;;;;;;;8.75;3.75;;;;;;;15.30;72.46;99710.56;4909224;29;20030;-91
2022/06/15 03:57:02;;;;;;;7.38;4.35;;;;;;;15.20;72.72;99702.53;4909784;29;20027;-90
2022/06/15 03:59:28;;;;;;;10.85;4.03;;;;;;;15.05;73.43;99698.91;4925597;29;20477;-90
2022/06/15 04:01:53;;;;;;;10.90;4.90;;;;;;;15.02;74.27;99701.41;4924968;29;20518;-89
2022/06/15 04:04:19;;;;;;;11.77;4.85;;;;;;;15.00;74.24;99698.97;4945686;29;20024;-92
2022/06/15 04:06:44;;;;;;;12.45;5.20;;;;;;;14.98;74.53;99712.00;4925589;29;20027;-90
2022/06/15 04:09:10;;;;;;;10.23;4.70;;;;;;;14.99;72.97;99700.06;4920891;29;20023;-91
2022/06/15 04:14:19;;;;;;;9.70;3.92;;;;;;;15.33;72.82;99715.38;4924977;29;20118;-91
2022/06/15 04:16:46;;;;;;;12.40;4.43;;;;;;;15.40;73.27;99725.88;4922250;29;20040;-90
2022/06/15 04:19:12;;;;;;;11.00;4.43;;;;;;;15.34;73.04;99709.66;4909905;29;20422;-91
2022/06/15 04:21:38;;;;;;;9.90;4.35;;;;;;;15.43;72.41;99717.16;4956815;29;20028;-91
2022/06/15 04:24:07;;;;;;;15.50;5.10;;;;;;;15.53;72.44;99725.16;4909883;29;20425;-93
2022/06/15 04:26:32;;;;;;;11.30;5.05;;;;;;;15.49;72.05;99707.84;4910248;29;20019;-92
2022/06/15 04:28:57;;;;;;;12.23;4.80;;;;;;;15.67;72.19;99714.38;4910296;29;20395;-93
2022/06/15 04:31:23;;;;;;;16.50;4.93;;;;;;;15.85;71.78;99720.94;4917153;29;20624;-93
2022/06/15 04:33:48;;;;;;;14.15;4.90;;;;;;;15.74;71.55;99712.13;4913000;29;20023;-90
2022/06/15 04:36:14;;;;;;;13.07;4.28;;;;;;;15.89;70.25;99736.31;4932048;29;20493;-90
2022/06/15 04:38:39;;;;;;;13.07;7.25;;;;;;;16.05;71.12;99725.25;4915119;29;20489;-90
2022/06/15 04:41:05;;;;;;;9.60;4.70;;;;;;;16.21;70.52;99723.91;4904677;29;20387;-90
2022/06/15 04:43:30;;;;;;;12.45;4.30;;;;;;;16.28;68.64;99716.16;4890719;29;20099;-92
2022/06/15 04:45:56;;;;;;;12.95;4.45;;;;;;;16.38;68.41;99728.78;4890569;29;20066;-91
2022/06/15 04:48:23;;;;;;;9.95;4.00;;;;;;;16.55;67.98;99737.16;4898843;29;20034;-94
2022/06/15 04:50:48;;;;;;;13.27;3.85;;;;;;;16.58;67.76;99705.88;4924783;29;20106;-90
2022/06/15 04:53:14;;;;;;;7.57;3.78;;;;;;;16.69;66.48;99714.63;4941749;29;20121;-91
2022/06/15 04:55:39;;;;;;;12.18;4.45;;;;;;;16.90;66.79;99725.94;4907758;29;20057;-92
2022/06/15 04:58:05;;;;;;;12.40;3.70;;;;;;;17.02;64.87;99737.13;4909139;29;20027;-92
2022/06/15 05:00:35;;;;;;;10.55;3.35;;;;;;;16.99;64.04;99726.84;4908761;29;20050;-92
2022/06/15 05:03:01;;;;;;;8.18;3.25;;;;;;;17.02;65.07;99728.19;4953838;29;20034;-90
2022/06/15 05:05:26;;;;;;;19.27;3.88;;;;;;;17.08;64.60;99714.16;4938180;29;20050;-91
2022/06/15 05:07:53;;;;;;;9.95;4.82;;;;;;;17.35;63.43;99724.22;4923681;29;20023;-89
2022/06/15 05:10:21;;;;;;;11.13;3.90;;;;;;;17.45;62.92;99736.81;4907051;29;20098;-92
2022/06/15 05:12:46;;;;;;;6.85;3.75;;;;;;;17.61;63.84;99741.91;4924123;29;20027;-91
2022/06/15 05:15:13;;;;;;;8.63;2.97;;;;;;;17.57;61.99;99728.09;4922762;29;20050;-89
2022/06/15 05:17:40;;;;;;;12.40;3.13;;;;;;;17.67;60.66;99736.03;4939689;29;20019;-91
2022/06/15 05:20:07;;;;;;;5.65;2.80;;;;;;;17.83;60.69;99747.44;4912493;29;20118;-93
2022/06/15 05:22:32;;;;;;;8.27;2.90;;;;;;;17.87;59.89;99742.97;4913399;29;20350;-89
2022/06/15 05:24:58;;;;;;;5.63;2.45;;;;;;;17.96;59.28;99746.56;4908053;29;20026;-90
2022/06/15 05:27:24;;;;;;;3.97;2.25;;;;;;;18.08;57.38;99750.69;4939820;29;20033;-91
2022/06/15 05:29:49;;;;;;;10.18;2.63;;;;;;;18.18;58.36;99751.22;4932763;29;20031;-91
2022/06/15 05:32:16;;;;;;;5.63;2.63;;;;;;;18.36;58.14;99770.41;4924077;29;20403;-93
2022/06/15 05:34:42;;;;;;;6.85;2.63;;;;;;;18.48;57.70;99767.94;4911111;29;20034;-94
2022/06/15 05:37:07;;;;;;;9.10;3.00;;;;;;;18.35;57.48;99761.44;4909122;29;20047;-94
2022/06/15 05:39:33;;;;;;;8.98;3.10;;;;;;;18.25;57.36;99744.53;4926962;29;20023;-94
2022/06/15 05:42:00;;;;;;;6.30;2.90;;;;;;;18.44;56.86;99763.41;4911418;29;20023;-93
2022/06/15 05:47:25;;;;;;;12.48;3.72;;;;;;;18.64;58.36;99757.44;4922429;29;20032;-95
2022/06/15 05:49:51;;;;;;;8.70;3.50;;;;;;;18.86;57.71;99767.53;4911080;29;20110;-95
2022/06/15 05:52:20;;;;;;;12.60;4.45;;;;;;;18.82;57.41;99750.16;4910442;29;20419;-91
2022/06/15 05:54:45;;;;;;;14.50;4.18;;;;;;;19.05;56.37;99764.56;4935789;29;20034;-95
2022/06/15 05:57:15;;;;;;;13.02;3.95;;;;;;;19.14;55.72;99762.66;4926111;29;20027;-95
2022/06/15 05:59:44;;;;;;;8.52;3.85;;;;;;;19.18;55.54;99752.72;4906608;29;20030;-93
2022/06/15 06:02:33;;;;;;;11.50;3.63;;;;;;;19.52;55.54;99777.72;4906757;29;20032;-95
2022/06/15 06:15:34;;;;;;;24.40;4.47;;;;;;;19.86;53.66;99757.88;4874555;29;20049;-93
2022/06/15 06:18:28;;;;;;;10.43;4.97;;;;;;;20.10;52.69;99765.56;4869071;29;20037;-96
2022/06/15 06:20:57;;;;;;;11.63;4.63;;;;;;;20.19;52.09;99768.28;4853767;29;20045;-95
2022/06/15 06:23:25;;;;;;;6.82;3.40;;;;;;;20.21;51.94;99774.22;4847893;29;20033;-95
2022/06/15 06:25:51;;;;;;;12.68;6.00;;;;;;;20.29;51.83;99767.97;4868355;29;20409;-94
2022/06/15 06:28:38;;;;;;;5.85;2.80;;;;;;;20.31;51.05;99765.69;4923028;29;20046;-91
2022/06/15 06:31:04;;;;;;;12.27;3.17;;;;;;;20.42;50.65;99763.47;4957662;29;20031;-91
2022/06/15 06:33:31;;;;;;;16.25;3.60;;;;;;;20.41;51.57;99753.63;4954856;29;20027;-91
2022/06/15 06:36:01;;;;;;;26.33;4.97;;;;;;;20.47;50.79;99757.00;4936399;29;20063;-91
2022/06/15 06:38:27;;;;;;;14.70;7.07;;;;;;;20.60;51.85;99766.97;4937368;29;20038;-91
2022/06/15 06:40:53;;;;;;;28.83;12.35;;;;;;;20.69;51.72;99759.56;4905500;29;20516;-91
2022/06/15 06:43:19;;;;;;;9.85;5.10;;;;;;;20.85;51.35;99759.00;4936142;29;20070;-91
2022/06/15 06:45:44;;;;;;;13.80;4.45;;;;;;;21.03;50.33;99781.66;4900227;29;20051;-91
2022/06/15 06:48:12;;;;;;;9.13;3.35;;;;;;;21.11;50.30;99778.06;4904496;29;20030;-90
2022/06/15 06:50:39;;;;;;;17.05;9.38;;;;;;;21.10;49.27;99766.28;4935541;29;20551;-89
2022/06/15 06:53:05;;;;;;;14.57;6.80;;;;;;;21.18;48.85;99779.16;4903670;29;20031;-92
2022/06/15 06:55:30;;;;;;;15.80;6.00;;;;;;;21.12;48.73;99763.25;4903846;29;20103;-92
2022/06/15 06:57:56;;;;;;;8.15;3.95;;;;;;;21.32;48.19;99767.97;4919534;29;20028;-90
2022/06/15 07:00:22;;;;;;;11.38;4.10;;;;;;;21.27;48.15;99746.25;4903157;29;20051;-90
2022/06/15 07:02:47;;;;;;;11.50;3.70;;;;;;;21.35;48.14;99752.81;4904137;29;20051;-93
2022/06/15 07:05:51;;;;;;;17.08;5.85;;;;;;;21.62;48.55;99783.63;4919140;29;20055;-90
2022/06/15 07:08:25;;;;;;;7.97;2.72;;;;;;;21.60;46.40;99775.72;4932773;29;20040;-92
2022/06/15 07:10:53;;;;;;;22.77;11.18;;;;;;;21.64;46.75;99784.88;4905714;29;20115;-95
2022/06/15 07:13:25;;;;;;;7.25;2.95;;;;;;;21.66;47.41;99746.19;4907129;29;20043;-93
2022/06/15 07:15:50;;;;;;;9.00;2.33;;;;;;;21.88;40.92;99767.78;4904085;29;20379;-93
2022/06/15 07:18:19;;;;;;;4.57;1.75;;;;;;;21.95;39.02;99751.59;4905629;29;20031;-96
2022/06/15 07:20:45;;;;;;;3.90;1.80;;;;;;;22.23;38.78;99775.75;4922019;29;20058;-93
2022/06/15 07:23:10;;;;;;;6.22;2.80;;;;;;;22.18;38.86;99762.22;4906406;29;20111;-92
2022/06/15 07:25:36;;;;;;;5.22;2.47;;;;;;;22.18;38.68;99764.97;4904186;29;20051;-95
2022/06/15 07:28:07;;;;;;;8.00;3.42;;;;;;;22.18;38.95;99757.56;4905783;29;20090;-93
2022/06/15 07:30:33;;;;;;;3.90;2.00;;;;;;;22.28;38.60;99763.78;4906552;29;20027;-92
2022/06/15 07:33:01;;;;;;;3.85;1.75;;;;;;;22.31;39.30;99763.13;4905958;29;20156;-93
2022/06/15 07:35:38;;;;;;;3.95;1.83;;;;;;;22.35;39.16;99770.31;4910251;29;20043;-93
2022/06/15 07:38:14;;;;;;;7.00;2.20;;;;;;;22.40;39.69;99770.09;4934211;29;20026;-93
2022/06/15 07:40:40;;;;;;;3.75;2.08;;;;;;;22.38;39.88;99758.66;4930663;29;20031;-93
2022/06/15 07:43:46;;;;;;;5.15;2.60;;;;;;;22.40;40.70;99750.91;4928511;29;20038;-95
2022/06/15 07:46:15;;;;;;;4.65;2.28;;;;;;;22.46;39.64;99770.69;4919225;29;20044;-95
2022/06/15 07:51:36;;;;;;;4.68;1.90;;;;;;;22.78;38.80;99784.72;4895096;29;20467;-94
2022/06/15 07:54:03;;;;;;;5.65;1.90;;;;;;;22.65;37.84;99759.19;4908830;29;20067;-93
2022/06/15 07:56:29;;;;;;;5.10;2.10;;;;;;;22.73;38.82;99763.00;4892256;29;20043;-96
2022/06/15 07:58:55;;;;;;;7.88;2.35;;;;;;;22.83;38.63;99758.97;4871749;29;20483;-94
2022/06/15 08:01:23;;;;;;;4.82;2.20;;;;;;;22.80;37.94;99768.72;4884490;29;20040;-94
2022/06/15 08:03:49;;;;;;;7.45;2.45;;;;;;;22.88;39.53;99767.81;4871384;29;20060;-95
2022/06/15 08:07:23;;;;;;;;;;;;;;;;;;;;;
2022/06/15 08:09:49;;;;;;;6.00;2.65;;;;;;;23.12;39.00;99758.03;4885613;29;20108;-96
2022/06/15 08:12:16;;;;;;;4.00;2.00;;;;;;;23.18;38.42;99760.19;4884043;29;20079;-94
2022/06/15 08:14:56;;;;;;;4.97;2.20;;;;;;;23.30;37.99;99780.56;4884714;29;20041;-94
2022/06/15 08:17:40;;;;;;;6.03;2.40;;;;;;;23.24;38.49;99781.94;4908556;29;20035;-95
2022/06/15 08:20:57;;;;;;;10.07;2.72;;;;;;;23.38;38.26;99758.44;4912307;29;20035;-94
2022/06/15 08:24:09;;;;;;;8.95;4.13;;;;;;;23.55;37.70;99753.84;4896370;29;20606;-95
2022/06/15 08:26:36;;;;;;;13.48;9.45;;;;;;;23.56;37.82;99760.97;4854864;29;20042;-94
2022/06/15 08:29:06;;;;;;;5.30;2.40;;;;;;;23.66;37.70;99771.50;4825659;29;20056;-96
2022/06/15 08:31:32;;;;;;;8.75;2.50;;;;;;;23.54;37.87;99766.81;4850266;29;20033;-94
2022/06/15 08:34:20;;;;;;;15.82;3.60;;;;;;;23.60;38.72;99781.91;4832073;29;20041;-93
2022/06/15 08:37:03;;;;;;;3.95;2.45;;;;;;;23.52;38.38;99766.34;4833773;29;20098;-95
2022/06/15 08:39:47;;;;;;;4.68;2.58;;;;;;;23.60;38.07;99770.91;4847719;29;20069;-92
2022/06/15 08:42:34;;;;;;;4.22;2.85;;;;;;;23.92;37.96;99792.31;4840464;29;20034;-95
2022/06/15 08:45:20;;;;;;;11.60;9.10;;;;;;;24.10;37.83;99796.38;4848186;29;20058;-94
2022/06/15 08:48:18;;;;;;;;;;;;;;;;;;;;;
2022/06/15 08:58:09;;;;;;;4.70;2.58;;;;;;;23.89;38.92;99796.56;4934375;29;20127;-96
2022/06/15 09:00:37;;;;;;;5.03;2.70;;;;;;;23.97;38.22;99781.88;4940842;29;20062;-95
2022/06/15 09:03:16;;;;;;;4.78;2.95;;;;;;;23.95;37.94;99758.63;4912753;29;20118;-93
2022/06/15 09:06:11;;;;;;;9.02;3.28;;;;;;;24.06;38.38;99778.16;4933351;29;20043;-95
2022/06/15 09:08:58;;;;;;;31.45;23.17;;;;;;;24.14;38.29;99794.53;4925234;29;20189;-94
2022/06/15 09:11:41;;;;;;;9.40;3.80;;;;;;;24.13;37.97;99768.16;4926858;29;20023;-92
2022/06/15 09:14:35;;;;;;;9.52;4.20;;;;;;;24.52;37.96;99795.19;4926971;29;20031;-94
2022/06/15 09:17:19;;;;;;;7.80;4.07;;;;;;;24.57;39.06;99779.22;4927006;29;20027;-93
2022/06/15 09:20:35;;;;;;;6.90;4.05;;;;;;;24.73;37.56;99779.22;4915088;29;20050;-91
2022/06/15 09:23:36;;;;;;;9.10;3.92;;;;;;;24.64;38.49;99781.38;4906775;29;20539;-96
2022/06/15 09:29:44;;;;;;;8.05;6.00;;;;;;;24.44;39.00;99772.16;4840880;29;20482;-93
2022/06/15 09:46:46;;;;;;;8.07;6.95;;;;;;;25.23;38.99;99799.00;4865611;29;20054;-95
2022/06/15 09:49:57;;;;;;;11.30;8.15;;;;;;;25.23;40.41;99799.00;4904116;29;20434;-94
2022/06/15 09:52:44;;;;;;;11.18;7.88;;;;;;;24.90;40.59;99793.81;4906234;29;20024;-95
2022/06/15 09:55:23;;;;;;;8.65;7.75;;;;;;;25.05;40.52;99789.47;4929268;29;20114;-91
2022/06/15 09:58:01;;;;;;;12.27;7.72;;;;;;;25.13;39.96;99769.19;4926745;29;20043;-96
2022/06/15 10:00:29;;;;;;;10.25;7.75;;;;;;;25.39;39.44;99780.50;4908414;29;20039;-94
2022/06/15 10:06:30;;;;;;;8.57;7.70;;;;;;;25.34;39.74;99788.25;5533880;23;20054;-94
2022/06/15 10:08:56;;;;;;;9.85;7.97;;;;;;;25.33;39.67;99775.63;4983826;28;20127;-92
2022/06/15 10:11:33;;;;;;;10.65;8.05;;;;;;;25.36;39.51;99789.50;4966618;28;20048;-91
2022/06/15 10:14:28;;;;;;;12.02;8.07;;;;;;;25.49;38.46;99795.69;4982011;28;20029;-94
2022/06/15 10:17:23;;;;;;;9.63;7.78;;;;;;;25.27;39.48;99766.81;4985708;28;20451;-96
2022/06/15 10:19:49;;;;;;;11.05;7.25;;;;;;;25.11;40.65;99777.84;4995724;28;20060;-95
2022/06/15 10:22:38;;;;;;;11.82;7.47;;;;;;;25.18;40.32;99772.50;4962785;28;20030;-92
2022/06/15 10:25:05;;;;;;;9.88;8.05;;;;;;;25.34;40.51;99769.75;4963670;28;20499;-93
2022/06/15 10:27:33;;;;;;;8.82;7.95;;;;;;;25.38;40.49;99759.59;4963059;28;20120;-91
2022/06/15 10:30:19;;;;;;;7.60;6.47;;;;;;;25.59;37.98;99778.59;4962718;28;20045;-93
2022/06/15 10:33:23;;;;;;;15.40;13.25;;;;;;;25.40;38.95;99762.81;5018448;28;20034;-95
2022/06/15 10:35:59;;;;;;;10.77;7.35;;;;;;;25.15;39.78;99769.63;4917522;29;20155;-95
2022/06/15 10:38:30;;;;;;;7.97;6.95;;;;;;;25.38;40.04;99767.06;4968475;28;20034;-95
2022/06/15 10:41:45;;;;;;;8.15;6.93;;;;;;;25.25;40.85;99760.84;4982714;28;20022;-96
2022/06/15 10:43:44;;;;;;;9.35;6.80;;;;;;;25.21;40.55;99768.25;4990150;28;20037;-95
2022/06/15 10:46:12;;;;;;;13.43;8.10;;;;;;;24.81;41.59;99755.44;4967369;28;20407;-94
2022/06/15 10:52:51;;;;;;;9.02;7.38;;;;;;;24.91;41.67;99749.41;5017291;28;20056;-96
2022/06/15 11:02:09;;;;;;;13.40;8.05;;;;;;;25.15;40.85;99751.16;4975884;28;20056;-94
2022/06/15 11:04:38;;;;;;;8.95;6.10;;;;;;;25.20;40.82;99753.66;4930032;28;20035;-92
2022/06/15 11:07:05;;;;;;;7.90;6.55;;;;;;;25.36;40.22;99761.94;4942918;28;20086;-93
2022/06/15 11:09:37;;;;;;;12.75;6.93;;;;;;;25.31;40.89;99753.91;4958926;28;20035;-93
2022/06/15 11:12:21;;;;;;;8.98;6.25;;;;;;;25.49;39.95;99753.53;4940023;28;20130;-94
2022/06/15 11:14:52;;;;;;;6.93;6.15;;;;;;;25.67;38.31;99734.59;4937603;28;20041;-94
2022/06/15 11:20:51;;;;;;;6.32;5.57;;;;;;;26.07;37.42;99764.66;4979519;28;19917;-94
2022/06/15 11:23:39;;;;;;;9.32;5.78;;;;;;;26.10;38.32;99769.44;4962182;28;20031;-92
2022/06/15 11:29:49;;;;;;;45.17;36.97;;;;;;;26.16;37.30;99778.22;4941747;29;20047;-91
2022/06/15 11:32:44;;;;;;;9.02;6.07;;;;;;;26.13;37.73;99768.72;4942603;28;20058;-94
2022/06/15 11:35:12;;;;;;;8.32;5.32;;;;;;;26.21;36.92;99764.94;4947909;28;20039;-94
2022/06/15 11:37:41;;;;;;;7.65;6.30;;;;;;;26.30;37.42;99756.44;4960489;28;20035;-92
2022/06/15 11:40:35;;;;;;;7.93;5.30;;;;;;;26.15;36.32;99749.84;4961304;28;20034;-94
2022/06/15 11:43:01;;;;;;;11.48;5.50;;;;;;;26.20;36.53;99744.00;4950874;28;20114;-92
2022/06/15 11:45:49;;;;;;;7.95;5.85;;;;;;;26.35;36.38;99744.28;4933708;28;20118;-94
2022/06/15 11:48:27;;;;;;;7.50;4.97;;;;;;;26.46;35.11;99744.47;4930786;28;20031;-95
2022/06/15 11:51:16;;;;;;;5.93;4.88;;;;;;;26.49;35.43;99735.47;4950804;28;20034;-93
2022/06/15 11:54:04;;;;;;;7.88;5.38;;;;;;;26.34;36.06;99760.06;4948488;28;20485;-96
2022/06/15 11:56:36;;;;;;;5.85;5.00;;;;;;;26.15;36.44;99738.78;4961952;28;20047;-96
2022/06/15 11:59:22;;;;;;;6.90;5.35;;;;;;;26.33;36.06;99758.44;4973279;28;20089;-95
2022/06/15 12:02:03;;;;;;;5.90;5.30;;;;;;;26.38;35.89;99751.84;4993498;28;20033;-96
2022/06/15 12:04:47;;;;;;;8.20;4.97;;;;;;;26.33;36.29;99750.16;5004708;28;20057;-94
2022/06/15 12:07:52;;;;;;;7.38;5.22;;;;;;;26.19;36.62;99727.81;5003314;28;20050;-94
2022/06/15 12:10:44;;;;;;;7.38;5.53;;;;;;;26.06;36.44;99724.41;4938290;29;20577;-95
2022/06/15 12:13:26;;;;;;;7.25;5.18;;;;;;;26.42;37.16;99739.69;4938607;29;20040;-94
2022/06/15 12:16:27;;;;;;;8.00;5.05;;;;;;;26.60;35.80;99730.94;4998398;28;20038;-94
2022/06/15 12:18:59;;;;;;;10.68;5.50;;;;;;;26.75;35.56;99718.16;4987875;28;20030;-96
2022/06/15 12:21:50;;;;;;;6.07;5.35;;;;;;;27.12;37.22;99748.00;4988194;28;20033;-91
2022/06/15 12:24:44;;;;;;;7.38;5.63;;;;;;;26.84;36.53;99746.38;5000771;28;20083;-94
2022/06/15 12:27:17;;;;;;;9.05;5.70;;;;;;;26.94;36.82;99731.13;4983954;28;20069;-93
2022/06/15 12:30:38;;;;;;;14.07;7.95;;;;;;;26.78;36.58;99707.19;4984192;28;20036;-96
2022/06/15 12:33:22;;;;;;;6.65;5.18;;;;;;;27.08;35.71;99725.84;4945117;29;20490;-92
2022/06/15 12:36:06;;;;;;;8.40;5.13;;;;;;;27.30;35.51;99720.66;4959907;29;20071;-93
2022/06/15 12:38:56;;;;;;;7.18;5.13;;;;;;;27.42;33.54;99723.97;4936926;29;20049;-94
2022/06/15 12:44:29;;;;;;;9.15;5.60;;;;;;;27.68;34.92;99688.34;4963100;28;20114;-93
2022/06/15 12:46:55;;;;;;;6.35;5.25;;;;;;;27.35;34.80;99692.66;4930603;28;20134;-92
2022/06/15 12:49:56;;;;;;;;;;;;;;;;;;;;;
2022/06/15 12:52:31;;;;;;;7.32;4.85;;;;;;;27.59;33.11;99683.91;4957626;29;20110;-94
2022/06/15 12:55:25;;;;;;;6.15;4.85;;;;;;;27.86;33.44;99670.03;4943544;29;20042;-94
2022/06/15 12:58:15;;;;;;;5.20;4.40;;;;;;;28.01;33.36;99684.81;4941647;29;20080;-94
2022/06/15 13:00:56;;;;;;;10.95;5.40;;;;;;;28.33;33.44;99699.00;4941822;29;20437;-94
2022/06/15 13:03:33;;;;;;;8.37;4.60;;;;;;;28.64;33.78;99702.47;4954990;28;20038;-96
2022/06/15 13:06:37;;;;;;;8.57;4.28;;;;;;;28.85;31.65;99709.38;4972072;28;20293;-94
2022/06/15 13:09:08;;;;;;;6.32;4.72;;;;;;;28.93;30.78;99706.28;4986661;28;20030;-94
2022/06/15 13:11:58;;;;;;;9.88;6.88;;;;;;;28.93;31.13;99675.78;4983988;28;20030;-94
2022/06/15 13:14:27;;;;;;;9.65;4.68;;;;;;;28.72;31.58;99692.22;4984583;28;20038;-93